METAR AND TAF INFORMATION
METAR FOR GEML
ADDS - METARS form results

(0738 UTC 03 February 2023)
Data provider http://aviationweather.gov/metar/data/
 
METAR text: GEML 030730Z 28005KT 9999 SCT027 SCT032 10/09 Q1029
Conditions at: GEML (MELILLA , ES) observed 0730 UTC 03 February 2023
Temperature: 10.0°C (50°F)
Dewpoint: 9.0°C (48°F) [RH = 93%]
Pressure (altimeter): 30.38 inches Hg (1029.0 mb)
Winds: from the W (280 degrees) at 6 MPH (5 knots; 2.6 m/s)
Visibility: 6 or more miles (10+ km)
Ceiling: at least 12,000 feet AGL
Clouds: scattered clouds at 2700 feet AGL
scattered clouds at 3200 feet AGL
Weather: no significant weather observed at this time

METAR text: GEML 030700Z 27004KT 9999 FEW028 SCT030 10/09 Q1029
Conditions at: GEML (MELILLA , ES) observed 0700 UTC 03 February 2023
Temperature: 10.0°C (50°F)
Dewpoint: 9.0°C (48°F) [RH = 93%]
Pressure (altimeter): 30.38 inches Hg (1029.0 mb)
Winds: from the W (270 degrees) at 5 MPH (4 knots; 2.1 m/s)
Visibility: 6 or more miles (10+ km)
Ceiling: at least 12,000 feet AGL
Clouds: few clouds at 2800 feet AGL
scattered clouds at 3000 feet AGL
Weather: no significant weather observed at this time

Forecast for: GEML (MELILLA , ES)
Text: TAF GEML 030500Z 0306/0406 VRB03KT 9999 SCT030 TX17/0313Z TN07/0306Z
Forecast period: 0600 to 1000 UTC 03 February 2023
Forecast type: FROM: standard forecast or significant change
Winds: variable direction winds at 3 MPH (3 knots; 1.5 m/s)
Visibility: 6 or more miles (10+ km)
Ceiling: at least 12,000 feet AGL
Clouds: scattered clouds at 3000 feet AGL
Weather: no significant weather forecast for this period
Text: BECMG 0310/0312 09010KT
Forecast period: 1000 UTC 03 February 2023 to 0100 UTC 04 February 2023
Forecast type: BECOMING: Conditions expected to become as follows by 1200 UTC 03 February 2023
Winds: from the E (90 degrees) at 12 MPH (10 knots; 5.1 m/s)
Visibility: 6 or more miles (10+ km)
Ceiling: at least 12,000 feet AGL
Clouds: scattered clouds at 3000 feet AGL
Weather: no significant weather forecast for this period
Text: BECMG 0401/0403 VRB03KT
Forecast period: 0100 to 0600 UTC 04 February 2023
Forecast type: BECOMING: Conditions expected to become as follows by 0300 UTC 04 February 2023
Winds: variable direction winds at 3 MPH (3 knots; 1.5 m/s)
Visibility: 6 or more miles (10+ km)
Ceiling: at least 12,000 feet AGL
Clouds: scattered clouds at 3000 feet AGL
Weather: no significant weather forecast for this period

 AIRPORT MAP

 RUNWAY INFORMATION
Runway 15 Runway length 4685 ft Runway width 148 ft
Runway elevation 156 ft Runway displaced threshold 755 ft Runway heading 146
Runway 33 Runway length 4685 ft Runway width 148 ft
Runway elevation 133 ft Runway displaced threshold 0 ft Runway heading 326

 AIRPORT FREQUENCIES
Type GND Name GND Frequency 121.7 MHZ
Type TWR Name TWR Frequency 118.5 MHZ

 AIRPORT NEAR NAVIGATION AIDS
Type VOR-DME Name Melilla Frequency 114250 KHZ
Type DME Name Melilla Frequency 117400 KHZ